Kezdőlap
METAR-TAF:

METAR-TAF

Repülőterek :

Ilulissat, Grönland

földrajzi szélesség: 69-14N, földrajzi hosszúság: 051-04W, magasság: 29 m

Jelenlegi meteorológiai megfigyelések

A jelentés 1 órával és 8 perccel ezelõtt készült, 16:50 UTC
Keleti szél 11 kt
Hőmérséklet -18°C
Páratartalom 54%
Légköri nyomás 1051 hPa
Látótávolság 10 km, vagy több
Kevés felhő 1000 lábon
alacsony hófúvás

METAR: BGJN 011650Z 10011KT 9999 DRSN FEW010 M18/M25 Q1051

Idő: 15:58 (17:58 UTC)

Előrejelzés

A jelentés 3 órával és 59 perccel ezelõtt készült, 13:59 UTC
Az előrejelzés 01-én 15 óra UTC és 01-én 21 óra UTC között érvényes
Keleti szél 10 kt
Látótávolság 10 km, vagy több
Kevés felhő 1000 lábon

TAF: BGJN 011359Z 0115/0121 10010KT 9999 FEW010

Meteorológiai megfigyelések és előrejelzések több, mint 4000 repülőtéren (METAR és TAF jelentéseket).

A térképen piros és sárga pontok jelzik az elérhető meteorológiai állomásokat.

Mozgassa az egeret a pont fölött, hogy megjelenjen az állomás neve.

Azután kattintson az időjárási megfigyelések és előrejelzések megtekintéséhez.

A térkép megváltoztatása: kattintson a fekete keresztel jelölt zöld gombra ráközelítéshez, a vonallal jelölt zöld gombra távolításhoz, vagy a zöld nyilakra a szomszédos térképek eléréséhez.


METAR-TAF: